sensor_id;sensor_type;location;lat;lon;timestamp;temperature;humidity
3715;DHT22;1873;49.988;8.674;2022-08-03T00:00:34;23.50;65.80
3715;DHT22;1873;49.988;8.674;2022-08-03T00:03:02;23.60;66.10
3715;DHT22;1873;49.988;8.674;2022-08-03T00:05:31;23.60;65.90
3715;DHT22;1873;49.988;8.674;2022-08-03T00:08:01;23.60;65.30
3715;DHT22;1873;49.988;8.674;2022-08-03T00:10:30;23.60;64.80
3715;DHT22;1873;49.988;8.674;2022-08-03T00:12:58;23.60;65.00
3715;DHT22;1873;49.988;8.674;2022-08-03T00:15:26;23.70;65.20
3715;DHT22;1873;49.988;8.674;2022-08-03T00:17:56;23.70;65.20
3715;DHT22;1873;49.988;8.674;2022-08-03T00:20:24;23.80;65.20
3715;DHT22;1873;49.988;8.674;2022-08-03T00:22:53;23.70;65.50
3715;DHT22;1873;49.988;8.674;2022-08-03T00:25:23;23.70;65.70
3715;DHT22;1873;49.988;8.674;2022-08-03T00:27:53;23.70;65.90
3715;DHT22;1873;49.988;8.674;2022-08-03T00:30:21;23.60;66.30
3715;DHT22;1873;49.988;8.674;2022-08-03T00:32:56;23.60;66.40
3715;DHT22;1873;49.988;8.674;2022-08-03T00:35:25;23.60;66.50
3715;DHT22;1873;49.988;8.674;2022-08-03T00:38:03;23.50;66.40
3715;DHT22;1873;49.988;8.674;2022-08-03T00:40:33;23.40;66.70
3715;DHT22;1873;49.988;8.674;2022-08-03T00:43:06;23.40;67.00
3715;DHT22;1873;49.988;8.674;2022-08-03T00:45:37;23.30;67.90
3715;DHT22;1873;49.988;8.674;2022-08-03T00:48:07;23.30;68.30
3715;DHT22;1873;49.988;8.674;2022-08-03T00:50:56;23.30;68.40
3715;DHT22;1873;49.988;8.674;2022-08-03T00:53:26;23.20;68.70
3715;DHT22;1873;49.988;8.674;2022-08-03T00:55:56;23.20;69.00
3715;DHT22;1873;49.988;8.674;2022-08-03T00:58:25;23.00;69.10
3715;DHT22;1873;49.988;8.674;2022-08-03T01:00:53;23.00;68.60
3715;DHT22;1873;49.988;8.674;2022-08-03T01:03:21;23.00;69.40
3715;DHT22;1873;49.988;8.674;2022-08-03T01:05:54;23.00;69.80
3715;DHT22;1873;49.988;8.674;2022-08-03T01:08:31;23.10;69.60
3715;DHT22;1873;49.988;8.674;2022-08-03T01:11:11;23.10;68.90
3715;DHT22;1873;49.988;8.674;2022-08-03T01:13:49;23.10;68.60
3715;DHT22;1873;49.988;8.674;2022-08-03T01:16:35;23.20;68.50
3715;DHT22;1873;49.988;8.674;2022-08-03T01:19:17;23.20;68.10
3715;DHT22;1873;49.988;8.674;2022-08-03T01:21:57;23.00;68.60
3715;DHT22;1873;49.988;8.674;2022-08-03T01:24:36;23.00;68.10
3715;DHT22;1873;49.988;8.674;2022-08-03T01:27:41;23.00;67.30
3715;DHT22;1873;49.988;8.674;2022-08-03T01:30:12;23.10;66.90
3715;DHT22;1873;49.988;8.674;2022-08-03T01:32:45;23.00;66.30
3715;DHT22;1873;49.988;8.674;2022-08-03T01:35:32;23.00;66.30
3715;DHT22;1873;49.988;8.674;2022-08-03T01:38:09;23.00;66.40
3715;DHT22;1873;49.988;8.674;2022-08-03T01:40:41;23.00;66.10
3715;DHT22;1873;49.988;8.674;2022-08-03T01:43:14;23.00;66.20
3715;DHT22;1873;49.988;8.674;2022-08-03T01:46:07;22.90;66.60
3715;DHT22;1873;49.988;8.674;2022-08-03T01:48:38;22.80;66.60
3715;DHT22;1873;49.988;8.674;2022-08-03T01:51:09;22.80;67.00
3715;DHT22;1873;49.988;8.674;2022-08-03T01:53:39;22.80;67.50
3715;DHT22;1873;49.988;8.674;2022-08-03T01:56:10;22.70;67.80
3715;DHT22;1873;49.988;8.674;2022-08-03T01:58:40;22.70;68.00
3715;DHT22;1873;49.988;8.674;2022-08-03T02:01:10;22.60;69.50
3715;DHT22;1873;49.988;8.674;2022-08-03T02:03:40;22.60;70.20
3715;DHT22;1873;49.988;8.674;2022-08-03T02:06:26;22.70;70.30
3715;DHT22;1873;49.988;8.674;2022-08-03T02:09:17;22.70;70.20
3715;DHT22;1873;49.988;8.674;2022-08-03T02:11:48;22.70;70.70
3715;DHT22;1873;49.988;8.674;2022-08-03T02:14:18;22.70;71.10
3715;DHT22;1873;49.988;8.674;2022-08-03T02:16:49;22.70;70.00
3715;DHT22;1873;49.988;8.674;2022-08-03T02:19:18;22.70;70.10
3715;DHT22;1873;49.988;8.674;2022-08-03T02:21:48;22.50;70.30
3715;DHT22;1873;49.988;8.674;2022-08-03T02:24:27;22.50;70.50
3715;DHT22;1873;49.988;8.674;2022-08-03T02:27:22;22.40;71.30
3715;DHT22;1873;49.988;8.674;2022-08-03T02:29:54;22.20;71.60
3715;DHT22;1873;49.988;8.674;2022-08-03T02:32:31;22.10;72.30
3715;DHT22;1873;49.988;8.674;2022-08-03T02:35:03;22.10;72.40
3715;DHT22;1873;49.988;8.674;2022-08-03T02:37:38;22.20;72.60
3715;DHT22;1873;49.988;8.674;2022-08-03T02:40:12;22.10;72.70
3715;DHT22;1873;49.988;8.674;2022-08-03T02:42:41;22.00;73.10
3715;DHT22;1873;49.988;8.674;2022-08-03T02:45:11;22.00;73.60
3715;DHT22;1873;49.988;8.674;2022-08-03T02:47:45;21.90;73.90
3715;DHT22;1873;49.988;8.674;2022-08-03T02:50:21;21.90;74.20
3715;DHT22;1873;49.988;8.674;2022-08-03T02:52:51;21.90;74.80
3715;DHT22;1873;49.988;8.674;2022-08-03T02:55:20;21.70;74.70
3715;DHT22;1873;49.988;8.674;2022-08-03T02:57:50;21.70;75.20
3715;DHT22;1873;49.988;8.674;2022-08-03T03:00:19;21.70;75.70
3715;DHT22;1873;49.988;8.674;2022-08-03T03:02:56;21.70;76.00
3715;DHT22;1873;49.988;8.674;2022-08-03T03:05:26;21.80;75.90
3715;DHT22;1873;49.988;8.674;2022-08-03T03:08:17;21.70;75.90
3715;DHT22;1873;49.988;8.674;2022-08-03T03:10:53;21.60;76.80
3715;DHT22;1873;49.988;8.674;2022-08-03T03:13:22;21.70;77.10
3715;DHT22;1873;49.988;8.674;2022-08-03T03:15:51;21.50;77.00
3715;DHT22;1873;49.988;8.674;2022-08-03T03:18:23;21.50;77.60
3715;DHT22;1873;49.988;8.674;2022-08-03T03:20:52;21.40;78.20
3715;DHT22;1873;49.988;8.674;2022-08-03T03:23:22;21.30;78.60
3715;DHT22;1873;49.988;8.674;2022-08-03T03:25:53;21.40;79.10
3715;DHT22;1873;49.988;8.674;2022-08-03T03:28:24;21.40;79.20
3715;DHT22;1873;49.988;8.674;2022-08-03T03:30:53;21.40;79.20
3715;DHT22;1873;49.988;8.674;2022-08-03T03:33:23;21.20;79.70
3715;DHT22;1873;49.988;8.674;2022-08-03T03:35:54;21.20;80.50
3715;DHT22;1873;49.988;8.674;2022-08-03T03:38:23;21.20;80.60
3715;DHT22;1873;49.988;8.674;2022-08-03T03:40:51;21.10;79.40
3715;DHT22;1873;49.988;8.674;2022-08-03T03:43:22;21.10;80.10
3715;DHT22;1873;49.988;8.674;2022-08-03T03:45:51;21.20;79.20
3715;DHT22;1873;49.988;8.674;2022-08-03T03:48:20;21.40;77.50
3715;DHT22;1873;49.988;8.674;2022-08-03T03:50:50;21.30;77.10
3715;DHT22;1873;49.988;8.674;2022-08-03T03:53:18;21.20;77.60
3715;DHT22;1873;49.988;8.674;2022-08-03T03:55:47;21.20;78.00
3715;DHT22;1873;49.988;8.674;2022-08-03T03:58:29;21.10;78.30
3715;DHT22;1873;49.988;8.674;2022-08-03T04:00:58;21.10;78.70
3715;DHT22;1873;49.988;8.674;2022-08-03T04:03:27;21.10;79.10
3715;DHT22;1873;49.988;8.674;2022-08-03T04:05:57;21.20;79.10
3715;DHT22;1873;49.988;8.674;2022-08-03T04:08:44;21.30;79.20
3715;DHT22;1873;49.988;8.674;2022-08-03T04:11:46;21.40;79.20
3715;DHT22;1873;49.988;8.674;2022-08-03T04:14:18;21.40;79.10
3715;DHT22;1873;49.988;8.674;2022-08-03T04:16:50;21.20;79.30
3715;DHT22;1873;49.988;8.674;2022-08-03T04:19:25;21.20;79.60
3715;DHT22;1873;49.988;8.674;2022-08-03T04:21:59;21.10;80.10
3715;DHT22;1873;49.988;8.674;2022-08-03T04:24:32;21.00;80.60
3715;DHT22;1873;49.988;8.674;2022-08-03T04:27:24;21.10;81.00
3715;DHT22;1873;49.988;8.674;2022-08-03T04:29:56;21.20;81.10
3715;DHT22;1873;49.988;8.674;2022-08-03T04:32:25;21.10;81.30
3715;DHT22;1873;49.988;8.674;2022-08-03T04:34:54;21.20;81.40
3715;DHT22;1873;49.988;8.674;2022-08-03T04:37:32;21.10;81.30
3715;DHT22;1873;49.988;8.674;2022-08-03T04:40:06;21.00;82.30
3715;DHT22;1873;49.988;8.674;2022-08-03T04:42:36;21.10;82.90
3715;DHT22;1873;49.988;8.674;2022-08-03T04:45:06;21.10;82.90
3715;DHT22;1873;49.988;8.674;2022-08-03T04:47:35;21.20;83.10
3715;DHT22;1873;49.988;8.674;2022-08-03T04:50:06;21.30;82.70
3715;DHT22;1873;49.988;8.674;2022-08-03T04:52:41;21.30;82.80
3715;DHT22;1873;49.988;8.674;2022-08-03T04:55:10;21.40;83.70
3715;DHT22;1873;49.988;8.674;2022-08-03T04:57:38;21.40;81.70
3715;DHT22;1873;49.988;8.674;2022-08-03T05:00:07;21.40;82.50
3715;DHT22;1873;49.988;8.674;2022-08-03T05:02:37;21.40;83.20
3715;DHT22;1873;49.988;8.674;2022-08-03T05:05:06;21.50;82.90
3715;DHT22;1873;49.988;8.674;2022-08-03T05:07:37;21.40;82.70
3715;DHT22;1873;49.988;8.674;2022-08-03T05:10:09;21.60;82.90
3715;DHT22;1873;49.988;8.674;2022-08-03T05:12:43;21.50;83.40
3715;DHT22;1873;49.988;8.674;2022-08-03T05:15:12;21.60;83.20
3715;DHT22;1873;49.988;8.674;2022-08-03T05:17:40;21.60;83.10
3715;DHT22;1873;49.988;8.674;2022-08-03T05:20:10;21.60;83.00
3715;DHT22;1873;49.988;8.674;2022-08-03T05:22:42;21.70;83.10
3715;DHT22;1873;49.988;8.674;2022-08-03T05:25:13;21.70;83.40
3715;DHT22;1873;49.988;8.674;2022-08-03T05:27:45;21.80;83.30
3715;DHT22;1873;49.988;8.674;2022-08-03T05:30:14;21.80;83.20
3715;DHT22;1873;49.988;8.674;2022-08-03T05:33:01;21.80;84.00
3715;DHT22;1873;49.988;8.674;2022-08-03T05:35:29;21.80;84.60
3715;DHT22;1873;49.988;8.674;2022-08-03T05:38:18;21.80;84.80
3715;DHT22;1873;49.988;8.674;2022-08-03T05:40:56;21.90;84.60
3715;DHT22;1873;49.988;8.674;2022-08-03T05:43:45;22.00;85.20
3715;DHT22;1873;49.988;8.674;2022-08-03T05:46:13;22.00;85.00
3715;DHT22;1873;49.988;8.674;2022-08-03T05:48:42;22.00;85.00
3715;DHT22;1873;49.988;8.674;2022-08-03T05:51:10;21.90;85.70
3715;DHT22;1873;49.988;8.674;2022-08-03T05:53:40;22.00;86.00
3715;DHT22;1873;49.988;8.674;2022-08-03T05:56:10;22.10;85.70
3715;DHT22;1873;49.988;8.674;2022-08-03T05:58:41;22.20;86.30
3715;DHT22;1873;49.988;8.674;2022-08-03T06:01:10;22.30;86.40
3715;DHT22;1873;49.988;8.674;2022-08-03T06:03:39;22.40;85.80
3715;DHT22;1873;49.988;8.674;2022-08-03T06:06:07;22.40;85.10
3715;DHT22;1873;49.988;8.674;2022-08-03T06:08:37;22.50;85.30
3715;DHT22;1873;49.988;8.674;2022-08-03T06:11:09;22.60;85.30
3715;DHT22;1873;49.988;8.674;2022-08-03T06:13:38;22.70;85.50
3715;DHT22;1873;49.988;8.674;2022-08-03T06:16:07;22.80;85.50
3715;DHT22;1873;49.988;8.674;2022-08-03T06:18:38;22.80;84.80
3715;DHT22;1873;49.988;8.674;2022-08-03T06:21:07;22.90;85.00
3715;DHT22;1873;49.988;8.674;2022-08-03T06:23:43;23.00;84.20
3715;DHT22;1873;49.988;8.674;2022-08-03T06:26:24;23.10;84.00
3715;DHT22;1873;49.988;8.674;2022-08-03T06:28:52;23.10;84.10
3715;DHT22;1873;49.988;8.674;2022-08-03T06:31:22;23.10;84.50
3715;DHT22;1873;49.988;8.674;2022-08-03T06:34:02;23.20;85.10
3715;DHT22;1873;49.988;8.674;2022-08-03T06:36:51;23.30;85.10
3715;DHT22;1873;49.988;8.674;2022-08-03T06:39:27;23.30;83.80
3715;DHT22;1873;49.988;8.674;2022-08-03T06:41:57;23.30;84.10
3715;DHT22;1873;49.988;8.674;2022-08-03T06:44:26;23.40;85.00
3715;DHT22;1873;49.988;8.674;2022-08-03T06:46:54;23.40;85.00
3715;DHT22;1873;49.988;8.674;2022-08-03T06:49:24;23.50;85.60
3715;DHT22;1873;49.988;8.674;2022-08-03T06:51:53;23.60;85.40
3715;DHT22;1873;49.988;8.674;2022-08-03T06:54:35;23.70;84.90
3715;DHT22;1873;49.988;8.674;2022-08-03T06:57:05;23.80;84.10
3715;DHT22;1873;49.988;8.674;2022-08-03T06:59:35;23.90;83.60
3715;DHT22;1873;49.988;8.674;2022-08-03T07:02:24;24.00;83.40
3715;DHT22;1873;49.988;8.674;2022-08-03T07:04:54;24.10;81.30
3715;DHT22;1873;49.988;8.674;2022-08-03T07:07:23;24.10;82.90
3715;DHT22;1873;49.988;8.674;2022-08-03T07:09:51;24.30;83.50
3715;DHT22;1873;49.988;8.674;2022-08-03T07:12:25;24.40;83.20
3715;DHT22;1873;49.988;8.674;2022-08-03T07:14:55;24.60;81.90
3715;DHT22;1873;49.988;8.674;2022-08-03T07:17:29;24.80;81.00
3715;DHT22;1873;49.988;8.674;2022-08-03T07:20:02;25.00;80.60
3715;DHT22;1873;49.988;8.674;2022-08-03T07:22:31;25.30;93.20
3715;DHT22;1873;49.988;8.674;2022-08-03T07:25:04;26.10;93.10
3715;DHT22;1873;49.988;8.674;2022-08-03T07:27:42;29.00;90.60
3715;DHT22;1873;49.988;8.674;2022-08-03T07:30:17;31.80;85.00
3715;DHT22;1873;49.988;8.674;2022-08-03T07:32:45;34.00;71.60
3715;DHT22;1873;49.988;8.674;2022-08-03T07:35:16;35.20;63.50
3715;DHT22;1873;49.988;8.674;2022-08-03T07:37:51;35.80;57.40
3715;DHT22;1873;49.988;8.674;2022-08-03T07:40:20;36.00;54.10
3715;DHT22;1873;49.988;8.674;2022-08-03T07:42:58;36.60;52.30
3715;DHT22;1873;49.988;8.674;2022-08-03T07:45:26;36.10;49.10
3715;DHT22;1873;49.988;8.674;2022-08-03T07:47:54;36.10;48.20
3715;DHT22;1873;49.988;8.674;2022-08-03T07:50:23;35.90;46.80
3715;DHT22;1873;49.988;8.674;2022-08-03T07:52:51;35.80;46.60
3715;DHT22;1873;49.988;8.674;2022-08-03T07:55:23;36.00;47.00
3715;DHT22;1873;49.988;8.674;2022-08-03T07:58:03;36.00;46.80
3715;DHT22;1873;49.988;8.674;2022-08-03T08:00:35;36.20;45.40
3715;DHT22;1873;49.988;8.674;2022-08-03T08:03:04;36.10;43.50
3715;DHT22;1873;49.988;8.674;2022-08-03T08:05:33;35.80;45.30
3715;DHT22;1873;49.988;8.674;2022-08-03T08:08:03;36.00;44.80
3715;DHT22;1873;49.988;8.674;2022-08-03T08:10:31;36.10;43.30
3715;DHT22;1873;49.988;8.674;2022-08-03T08:13:07;36.30;43.40
3715;DHT22;1873;49.988;8.674;2022-08-03T08:15:36;36.20;41.90
3715;DHT22;1873;49.988;8.674;2022-08-03T08:18:09;36.20;43.50
3715;DHT22;1873;49.988;8.674;2022-08-03T08:20:38;36.50;43.30
3715;DHT22;1873;49.988;8.674;2022-08-03T08:23:11;36.90;42.00
3715;DHT22;1873;49.988;8.674;2022-08-03T08:25:59;37.30;40.20
3715;DHT22;1873;49.988;8.674;2022-08-03T08:28:30;37.30;39.50
3715;DHT22;1873;49.988;8.674;2022-08-03T08:30:59;37.20;38.90
3715;DHT22;1873;49.988;8.674;2022-08-03T08:33:28;37.20;39.30
3715;DHT22;1873;49.988;8.674;2022-08-03T08:36:16;37.20;40.10
3715;DHT22;1873;49.988;8.674;2022-08-03T08:38:45;37.40;38.30
3715;DHT22;1873;49.988;8.674;2022-08-03T08:41:14;37.20;37.90
3715;DHT22;1873;49.988;8.674;2022-08-03T08:43:44;37.20;39.20
3715;DHT22;1873;49.988;8.674;2022-08-03T08:46:14;37.00;36.80
3715;DHT22;1873;49.988;8.674;2022-08-03T08:48:59;36.60;38.60
3715;DHT22;1873;49.988;8.674;2022-08-03T08:51:42;36.40;38.00
3715;DHT22;1873;49.988;8.674;2022-08-03T08:54:27;35.20;37.50
3715;DHT22;1873;49.988;8.674;2022-08-03T08:57:05;35.90;37.50
3715;DHT22;1873;49.988;8.674;2022-08-03T09:00:00;35.70;39.60
3715;DHT22;1873;49.988;8.674;2022-08-03T09:02:30;35.50;39.30
3715;DHT22;1873;49.988;8.674;2022-08-03T09:05:00;35.10;39.20
3715;DHT22;1873;49.988;8.674;2022-08-03T09:07:33;35.20;39.50
3715;DHT22;1873;49.988;8.674;2022-08-03T09:10:02;35.20;38.90
3715;DHT22;1873;49.988;8.674;2022-08-03T09:12:41;34.90;39.50
3715;DHT22;1873;49.988;8.674;2022-08-03T09:15:21;34.80;39.40
3715;DHT22;1873;49.988;8.674;2022-08-03T09:17:52;34.80;39.70
3715;DHT22;1873;49.988;8.674;2022-08-03T09:20:23;34.20;41.00
3715;DHT22;1873;49.988;8.674;2022-08-03T09:22:54;34.30;40.40
3715;DHT22;1873;49.988;8.674;2022-08-03T09:25:28;34.20;41.40
3715;DHT22;1873;49.988;8.674;2022-08-03T09:28:08;34.10;42.60
3715;DHT22;1873;49.988;8.674;2022-08-03T09:30:40;34.00;42.50
3715;DHT22;1873;49.988;8.674;2022-08-03T09:33:14;33.60;43.80
3715;DHT22;1873;49.988;8.674;2022-08-03T09:35:45;33.20;43.60
3715;DHT22;1873;49.988;8.674;2022-08-03T09:38:36;33.60;43.60
3715;DHT22;1873;49.988;8.674;2022-08-03T09:41:18;33.20;44.30
3715;DHT22;1873;49.988;8.674;2022-08-03T09:43:48;33.20;42.90
3715;DHT22;1873;49.988;8.674;2022-08-03T09:46:46;33.60;41.90
3715;DHT22;1873;49.988;8.674;2022-08-03T09:49:57;34.30;40.50
3715;DHT22;1873;49.988;8.674;2022-08-03T09:52:39;34.20;41.20
3715;DHT22;1873;49.988;8.674;2022-08-03T09:55:19;34.40;40.90
3715;DHT22;1873;49.988;8.674;2022-08-03T09:58:09;34.30;40.10
3715;DHT22;1873;49.988;8.674;2022-08-03T10:00:54;34.20;41.20
3715;DHT22;1873;49.988;8.674;2022-08-03T10:03:57;33.70;40.20
3715;DHT22;1873;49.988;8.674;2022-08-03T10:06:30;33.70;40.90
3715;DHT22;1873;49.988;8.674;2022-08-03T10:09:06;33.90;41.00
3715;DHT22;1873;49.988;8.674;2022-08-03T10:11:36;34.20;39.60
3715;DHT22;1873;49.988;8.674;2022-08-03T10:14:10;34.00;40.10
3715;DHT22;1873;49.988;8.674;2022-08-03T10:16:46;33.60;39.30
3715;DHT22;1873;49.988;8.674;2022-08-03T10:19:17;33.70;40.90
3715;DHT22;1873;49.988;8.674;2022-08-03T10:21:49;34.00;40.20
3715;DHT22;1873;49.988;8.674;2022-08-03T10:24:24;34.20;40.00
3715;DHT22;1873;49.988;8.674;2022-08-03T10:27:09;34.10;41.30
3715;DHT22;1873;49.988;8.674;2022-08-03T10:29:44;34.40;39.50
3715;DHT22;1873;49.988;8.674;2022-08-03T10:32:18;34.70;41.00
3715;DHT22;1873;49.988;8.674;2022-08-03T10:34:50;34.80;39.70
3715;DHT22;1873;49.988;8.674;2022-08-03T10:37:30;34.80;37.90
3715;DHT22;1873;49.988;8.674;2022-08-03T10:39:59;34.10;38.10
3715;DHT22;1873;49.988;8.674;2022-08-03T10:42:28;33.70;39.10
3715;DHT22;1873;49.988;8.674;2022-08-03T10:45:03;33.90;39.00
3715;DHT22;1873;49.988;8.674;2022-08-03T10:47:47;34.30;38.70
3715;DHT22;1873;49.988;8.674;2022-08-03T10:50:18;34.50;38.80
3715;DHT22;1873;49.988;8.674;2022-08-03T10:52:56;34.70;38.20
3715;DHT22;1873;49.988;8.674;2022-08-03T10:55:30;34.70;38.00
3715;DHT22;1873;49.988;8.674;2022-08-03T10:58:47;34.60;38.40
3715;DHT22;1873;49.988;8.674;2022-08-03T11:01:51;34.00;39.10
3715;DHT22;1873;49.988;8.674;2022-08-03T11:04:27;33.90;38.40
3715;DHT22;1873;49.988;8.674;2022-08-03T11:07:20;34.00;38.40
3715;DHT22;1873;49.988;8.674;2022-08-03T11:09:50;34.00;38.60
3715;DHT22;1873;49.988;8.674;2022-08-03T11:12:25;34.10;38.70
3715;DHT22;1873;49.988;8.674;2022-08-03T11:15:00;34.50;39.40
3715;DHT22;1873;49.988;8.674;2022-08-03T11:17:29;34.70;38.20
3715;DHT22;1873;49.988;8.674;2022-08-03T11:19:59;34.70;38.00
3715;DHT22;1873;49.988;8.674;2022-08-03T11:22:47;34.30;37.40
3715;DHT22;1873;49.988;8.674;2022-08-03T11:25:21;34.10;38.80
3715;DHT22;1873;49.988;8.674;2022-08-03T11:28:27;34.30;38.00
3715;DHT22;1873;49.988;8.674;2022-08-03T11:30:57;34.50;38.40
3715;DHT22;1873;49.988;8.674;2022-08-03T11:34:06;35.00;38.40
3715;DHT22;1873;49.988;8.674;2022-08-03T11:39:43;35.20;36.90
3715;DHT22;1873;49.988;8.674;2022-08-03T11:42:37;35.10;38.10
3715;DHT22;1873;49.988;8.674;2022-08-03T11:45:08;35.20;37.70
3715;DHT22;1873;49.988;8.674;2022-08-03T11:47:38;35.40;38.10
3715;DHT22;1873;49.988;8.674;2022-08-03T11:50:18;35.30;38.00
3715;DHT22;1873;49.988;8.674;2022-08-03T11:52:50;34.20;36.80
3715;DHT22;1873;49.988;8.674;2022-08-03T11:55:20;35.00;37.30
3715;DHT22;1873;49.988;8.674;2022-08-03T11:57:57;34.70;37.80
3715;DHT22;1873;49.988;8.674;2022-08-03T12:00:46;34.50;37.90
3715;DHT22;1873;49.988;8.674;2022-08-03T12:03:16;34.30;39.30
3715;DHT22;1873;49.988;8.674;2022-08-03T12:05:48;34.10;38.60
3715;DHT22;1873;49.988;8.674;2022-08-03T12:08:29;33.90;39.00
3715;DHT22;1873;49.988;8.674;2022-08-03T12:11:01;33.80;39.90
3715;DHT22;1873;49.988;8.674;2022-08-03T12:13:39;33.70;39.90
3715;DHT22;1873;49.988;8.674;2022-08-03T12:16:28;33.70;40.20
3715;DHT22;1873;49.988;8.674;2022-08-03T12:18:57;33.60;40.00
3715;DHT22;1873;49.988;8.674;2022-08-03T12:21:26;33.60;40.20
3715;DHT22;1873;49.988;8.674;2022-08-03T12:23:58;33.50;41.40
3715;DHT22;1873;49.988;8.674;2022-08-03T12:26:31;33.50;39.80
3715;DHT22;1873;49.988;8.674;2022-08-03T12:29:39;33.50;40.50
3715;DHT22;1873;49.988;8.674;2022-08-03T12:32:25;33.40;39.70
3715;DHT22;1873;49.988;8.674;2022-08-03T12:34:55;33.40;40.20
3715;DHT22;1873;49.988;8.674;2022-08-03T12:37:27;33.20;40.30
3715;DHT22;1873;49.988;8.674;2022-08-03T12:39:58;33.10;41.20
3715;DHT22;1873;49.988;8.674;2022-08-03T12:42:38;33.10;41.40
3715;DHT22;1873;49.988;8.674;2022-08-03T12:45:23;33.00;41.00
3715;DHT22;1873;49.988;8.674;2022-08-03T12:47:55;32.90;42.40
3715;DHT22;1873;49.988;8.674;2022-08-03T12:50:29;32.70;42.10
3715;DHT22;1873;49.988;8.674;2022-08-03T12:52:59;32.70;42.20
3715;DHT22;1873;49.988;8.674;2022-08-03T12:55:29;32.70;42.30
3715;DHT22;1873;49.988;8.674;2022-08-03T12:58:36;32.70;42.20
3715;DHT22;1873;49.988;8.674;2022-08-03T13:01:05;32.60;42.20
3715;DHT22;1873;49.988;8.674;2022-08-03T13:03:40;32.50;41.80
3715;DHT22;1873;49.988;8.674;2022-08-03T13:06:16;32.50;41.90
3715;DHT22;1873;49.988;8.674;2022-08-03T13:08:45;32.50;43.50
3715;DHT22;1873;49.988;8.674;2022-08-03T13:11:22;32.50;42.70
3715;DHT22;1873;49.988;8.674;2022-08-03T13:14:12;32.30;42.80
3715;DHT22;1873;49.988;8.674;2022-08-03T13:16:46;32.20;43.50
3715;DHT22;1873;49.988;8.674;2022-08-03T13:19:15;32.30;42.90
3715;DHT22;1873;49.988;8.674;2022-08-03T13:21:43;32.30;43.70
3715;DHT22;1873;49.988;8.674;2022-08-03T13:24:31;32.20;44.20
3715;DHT22;1873;49.988;8.674;2022-08-03T13:26:59;32.20;43.70
3715;DHT22;1873;49.988;8.674;2022-08-03T13:29:54;32.20;43.20
3715;DHT22;1873;49.988;8.674;2022-08-03T13:32:23;32.10;44.00
3715;DHT22;1873;49.988;8.674;2022-08-03T13:34:52;32.10;43.70
3715;DHT22;1873;49.988;8.674;2022-08-03T13:37:20;32.00;44.60
3715;DHT22;1873;49.988;8.674;2022-08-03T13:39:49;32.00;43.90
3715;DHT22;1873;49.988;8.674;2022-08-03T13:42:27;32.00;44.50
3715;DHT22;1873;49.988;8.674;2022-08-03T13:44:57;32.00;44.10
3715;DHT22;1873;49.988;8.674;2022-08-03T13:47:26;32.00;44.70
3715;DHT22;1873;49.988;8.674;2022-08-03T13:49:55;32.00;44.40
3715;DHT22;1873;49.988;8.674;2022-08-03T13:52:29;31.90;44.80
3715;DHT22;1873;49.988;8.674;2022-08-03T13:54:58;31.80;43.70
3715;DHT22;1873;49.988;8.674;2022-08-03T13:57:26;31.90;43.30
3715;DHT22;1873;49.988;8.674;2022-08-03T14:00:17;32.00;43.00
3715;DHT22;1873;49.988;8.674;2022-08-03T14:02:54;32.20;42.90
3715;DHT22;1873;49.988;8.674;2022-08-03T14:05:41;32.20;43.00
3715;DHT22;1873;49.988;8.674;2022-08-03T14:08:09;32.10;43.40
3715;DHT22;1873;49.988;8.674;2022-08-03T14:10:40;32.00;43.40
3715;DHT22;1873;49.988;8.674;2022-08-03T14:13:10;32.00;43.70
3715;DHT22;1873;49.988;8.674;2022-08-03T14:15:44;31.80;45.20
3715;DHT22;1873;49.988;8.674;2022-08-03T14:18:18;31.90;43.30
3715;DHT22;1873;49.988;8.674;2022-08-03T14:21:01;32.00;43.00
3715;DHT22;1873;49.988;8.674;2022-08-03T14:23:33;32.00;42.60
3715;DHT22;1873;49.988;8.674;2022-08-03T14:26:02;32.00;42.80
3715;DHT22;1873;49.988;8.674;2022-08-03T14:28:30;31.90;43.50
3715;DHT22;1873;49.988;8.674;2022-08-03T14:31:00;31.80;44.00
3715;DHT22;1873;49.988;8.674;2022-08-03T14:33:29;31.80;42.80
3715;DHT22;1873;49.988;8.674;2022-08-03T14:35:57;31.80;44.60
3715;DHT22;1873;49.988;8.674;2022-08-03T14:38:27;31.70;44.40
3715;DHT22;1873;49.988;8.674;2022-08-03T14:40:55;31.90;44.00
3715;DHT22;1873;49.988;8.674;2022-08-03T14:43:24;32.30;42.90
3715;DHT22;1873;49.988;8.674;2022-08-03T14:46:16;32.50;42.40
3715;DHT22;1873;49.988;8.674;2022-08-03T14:49:00;32.20;43.90
3715;DHT22;1873;49.988;8.674;2022-08-03T14:51:50;31.80;46.00
3715;DHT22;1873;49.988;8.674;2022-08-03T14:54:20;31.30;52.30
3715;DHT22;1873;49.988;8.674;2022-08-03T14:56:51;30.80;54.40
3715;DHT22;1873;49.988;8.674;2022-08-03T14:59:19;30.90;46.70
3715;DHT22;1873;49.988;8.674;2022-08-03T15:01:56;31.10;46.50
3715;DHT22;1873;49.988;8.674;2022-08-03T15:04:34;31.20;45.80
3715;DHT22;1873;49.988;8.674;2022-08-03T15:07:17;31.50;44.90
3715;DHT22;1873;49.988;8.674;2022-08-03T15:10:01;31.40;45.20
3715;DHT22;1873;49.988;8.674;2022-08-03T15:12:32;31.30;45.20
3715;DHT22;1873;49.988;8.674;2022-08-03T15:15:00;31.60;44.50
3715;DHT22;1873;49.988;8.674;2022-08-03T15:17:31;31.90;43.90
3715;DHT22;1873;49.988;8.674;2022-08-03T15:20:04;32.00;43.70
3715;DHT22;1873;49.988;8.674;2022-08-03T15:22:54;31.90;43.40
3715;DHT22;1873;49.988;8.674;2022-08-03T15:25:23;31.90;44.10
3715;DHT22;1873;49.988;8.674;2022-08-03T15:28:12;31.80;44.40
3715;DHT22;1873;49.988;8.674;2022-08-03T15:30:40;31.70;44.30
3715;DHT22;1873;49.988;8.674;2022-08-03T15:33:11;31.60;45.10
3715;DHT22;1873;49.988;8.674;2022-08-03T15:35:40;31.50;45.80
3715;DHT22;1873;49.988;8.674;2022-08-03T15:38:08;31.40;45.10
3715;DHT22;1873;49.988;8.674;2022-08-03T15:40:37;31.60;43.30
3715;DHT22;1873;49.988;8.674;2022-08-03T15:43:06;31.80;44.30
3715;DHT22;1873;49.988;8.674;2022-08-03T15:45:35;31.70;45.20
3715;DHT22;1873;49.988;8.674;2022-08-03T15:48:04;31.90;43.20
3715;DHT22;1873;49.988;8.674;2022-08-03T15:50:34;31.90;43.80
3715;DHT22;1873;49.988;8.674;2022-08-03T15:53:03;32.00;43.40
3715;DHT22;1873;49.988;8.674;2022-08-03T15:55:35;32.20;42.00
3715;DHT22;1873;49.988;8.674;2022-08-03T15:58:04;32.10;43.00
3715;DHT22;1873;49.988;8.674;2022-08-03T16:00:52;32.10;42.60
3715;DHT22;1873;49.988;8.674;2022-08-03T16:03:23;32.10;42.80
3715;DHT22;1873;49.988;8.674;2022-08-03T16:05:55;32.20;42.30
3715;DHT22;1873;49.988;8.674;2022-08-03T16:08:23;32.10;43.90
3715;DHT22;1873;49.988;8.674;2022-08-03T16:10:52;32.00;43.40
3715;DHT22;1873;49.988;8.674;2022-08-03T16:13:23;28.30;40.40
3715;DHT22;1873;49.988;8.674;2022-08-03T16:16:12;32.10;43.60
3715;DHT22;1873;49.988;8.674;2022-08-03T16:18:43;31.90;42.70
3715;DHT22;1873;49.988;8.674;2022-08-03T16:23:48;31.90;44.00
3715;DHT22;1873;49.988;8.674;2022-08-03T16:26:17;31.90;43.00
3715;DHT22;1873;49.988;8.674;2022-08-03T16:28:45;31.90;44.20
3715;DHT22;1873;49.988;8.674;2022-08-03T16:31:14;31.80;44.20
3715;DHT22;1873;49.988;8.674;2022-08-03T16:33:43;31.80;44.30
3715;DHT22;1873;49.988;8.674;2022-08-03T16:36:13;31.70;44.40
3715;DHT22;1873;49.988;8.674;2022-08-03T16:38:42;31.60;45.20
3715;DHT22;1873;49.988;8.674;2022-08-03T16:41:11;31.70;46.70
3715;DHT22;1873;49.988;8.674;2022-08-03T16:43:40;31.40;45.90
3715;DHT22;1873;49.988;8.674;2022-08-03T16:46:08;31.50;45.00
3715;DHT22;1873;49.988;8.674;2022-08-03T16:48:38;31.50;45.20
3715;DHT22;1873;49.988;8.674;2022-08-03T16:51:07;31.50;45.50
3715;DHT22;1873;49.988;8.674;2022-08-03T16:56:25;31.50;44.60